sensor_id;sensor_type;location;lat;lon;timestamp;temperature;humidity
51815;DHT22;37874;53.158;6.766;2022-12-18T00:01:34;18.50;49.60
51815;DHT22;37874;53.158;6.766;2022-12-18T00:04:01;18.50;48.90
51815;DHT22;37874;53.158;6.766;2022-12-18T00:06:32;18.50;48.90
51815;DHT22;37874;53.158;6.766;2022-12-18T00:08:59;18.50;48.90
51815;DHT22;37874;53.158;6.766;2022-12-18T00:11:28;18.50;48.80
51815;DHT22;37874;53.158;6.766;2022-12-18T00:13:55;18.40;48.50
51815;DHT22;37874;53.158;6.766;2022-12-18T00:16:24;18.50;48.90
51815;DHT22;37874;53.158;6.766;2022-12-18T00:18:52;18.40;49.00
51815;DHT22;37874;53.158;6.766;2022-12-18T00:21:18;18.50;49.00
51815;DHT22;37874;53.158;6.766;2022-12-18T00:23:45;18.40;49.00
51815;DHT22;37874;53.158;6.766;2022-12-18T00:26:13;18.60;49.20
51815;DHT22;37874;53.158;6.766;2022-12-18T00:28:40;18.40;49.00
51815;DHT22;37874;53.158;6.766;2022-12-18T00:31:08;18.40;49.00
51815;DHT22;37874;53.158;6.766;2022-12-18T00:33:35;18.40;49.10
51815;DHT22;37874;53.158;6.766;2022-12-18T00:36:05;18.30;49.10
51815;DHT22;37874;53.158;6.766;2022-12-18T00:38:32;18.40;49.10
51815;DHT22;37874;53.158;6.766;2022-12-18T00:40:57;18.40;49.00
51815;DHT22;37874;53.158;6.766;2022-12-18T00:43:23;18.30;48.90
51815;DHT22;37874;53.158;6.766;2022-12-18T00:45:48;18.30;49.00
51815;DHT22;37874;53.158;6.766;2022-12-18T00:48:14;18.40;48.90
51815;DHT22;37874;53.158;6.766;2022-12-18T00:50:40;18.30;49.00
51815;DHT22;37874;53.158;6.766;2022-12-18T00:53:06;18.30;48.90
51815;DHT22;37874;53.158;6.766;2022-12-18T00:55:31;18.30;48.90
51815;DHT22;37874;53.158;6.766;2022-12-18T00:57:57;18.20;48.90
51815;DHT22;37874;53.158;6.766;2022-12-18T01:00:23;18.20;48.90
51815;DHT22;37874;53.158;6.766;2022-12-18T01:02:49;18.20;49.10
51815;DHT22;37874;53.158;6.766;2022-12-18T01:05:15;18.10;49.10
51815;DHT22;37874;53.158;6.766;2022-12-18T01:07:41;18.20;49.10
51815;DHT22;37874;53.158;6.766;2022-12-18T01:10:08;18.10;49.20
51815;DHT22;37874;53.158;6.766;2022-12-18T01:12:34;18.10;49.20
51815;DHT22;37874;53.158;6.766;2022-12-18T01:15:00;18.10;49.30
51815;DHT22;37874;53.158;6.766;2022-12-18T01:17:25;18.00;49.30
51815;DHT22;37874;53.158;6.766;2022-12-18T01:19:51;18.10;49.10
51815;DHT22;37874;53.158;6.766;2022-12-18T01:22:18;18.00;49.10
51815;DHT22;37874;53.158;6.766;2022-12-18T01:24:43;18.10;49.10
51815;DHT22;37874;53.158;6.766;2022-12-18T01:27:09;18.00;49.10
51815;DHT22;37874;53.158;6.766;2022-12-18T01:29:34;18.00;49.10
51815;DHT22;37874;53.158;6.766;2022-12-18T01:32:00;18.00;49.10
51815;DHT22;37874;53.158;6.766;2022-12-18T01:34:26;18.00;49.10
51815;DHT22;37874;53.158;6.766;2022-12-18T01:36:51;18.00;49.00
51815;DHT22;37874;53.158;6.766;2022-12-18T01:39:20;18.00;49.00
51815;DHT22;37874;53.158;6.766;2022-12-18T01:41:46;18.00;49.10
51815;DHT22;37874;53.158;6.766;2022-12-18T01:50:00;17.90;49.10
51815;DHT22;37874;53.158;6.766;2022-12-18T01:52:30;18.00;49.10
51815;DHT22;37874;53.158;6.766;2022-12-18T01:54:57;17.90;49.10
51815;DHT22;37874;53.158;6.766;2022-12-18T01:57:25;17.80;49.00
51815;DHT22;37874;53.158;6.766;2022-12-18T01:59:53;17.90;49.10
51815;DHT22;37874;53.158;6.766;2022-12-18T02:02:20;17.90;49.00
51815;DHT22;37874;53.158;6.766;2022-12-18T02:04:46;17.90;49.00
51815;DHT22;37874;53.158;6.766;2022-12-18T02:07:24;17.90;49.00
51815;DHT22;37874;53.158;6.766;2022-12-18T02:17:51;17.80;48.90
51815;DHT22;37874;53.158;6.766;2022-12-18T02:20:47;17.80;49.00
51815;DHT22;37874;53.158;6.766;2022-12-18T02:26:16;17.80;48.90
51815;DHT22;37874;53.158;6.766;2022-12-18T02:28:53;17.70;49.00
51815;DHT22;37874;53.158;6.766;2022-12-18T02:31:26;17.70;49.00
51815;DHT22;37874;53.158;6.766;2022-12-18T02:33:54;17.70;49.00
51815;DHT22;37874;53.158;6.766;2022-12-18T02:36:21;17.70;48.90
51815;DHT22;37874;53.158;6.766;2022-12-18T02:38:48;17.70;48.90
51815;DHT22;37874;53.158;6.766;2022-12-18T02:41:15;17.70;48.90
51815;DHT22;37874;53.158;6.766;2022-12-18T02:43:50;17.70;48.90
51815;DHT22;37874;53.158;6.766;2022-12-18T02:46:34;17.70;48.90
51815;DHT22;37874;53.158;6.766;2022-12-18T02:51:55;17.70;48.90
51815;DHT22;37874;53.158;6.766;2022-12-18T02:54:41;17.70;48.90
51815;DHT22;37874;53.158;6.766;2022-12-18T03:00:12;17.60;48.80
51815;DHT22;37874;53.158;6.766;2022-12-18T03:05:21;17.60;48.70
51815;DHT22;37874;53.158;6.766;2022-12-18T03:07:59;17.60;48.80
51815;DHT22;37874;53.158;6.766;2022-12-18T03:10:30;17.60;48.80
51815;DHT22;37874;53.158;6.766;2022-12-18T03:13:06;17.60;48.80
51815;DHT22;37874;53.158;6.766;2022-12-18T03:15:47;17.50;48.70
51815;DHT22;37874;53.158;6.766;2022-12-18T03:18:21;17.50;48.80
51815;DHT22;37874;53.158;6.766;2022-12-18T03:20:49;17.50;48.80
51815;DHT22;37874;53.158;6.766;2022-12-18T03:23:21;17.50;48.70
51815;DHT22;37874;53.158;6.766;2022-12-18T03:25:50;17.70;48.90
51815;DHT22;37874;53.158;6.766;2022-12-18T03:28:20;17.50;48.80
51815;DHT22;37874;53.158;6.766;2022-12-18T03:30:47;17.50;48.70
51815;DHT22;37874;53.158;6.766;2022-12-18T03:33:28;17.50;48.70
51815;DHT22;37874;53.158;6.766;2022-12-18T03:35:56;17.50;48.70
51815;DHT22;37874;53.158;6.766;2022-12-18T03:38:21;17.50;48.70
51815;DHT22;37874;53.158;6.766;2022-12-18T03:43:43;17.40;48.60
51815;DHT22;37874;53.158;6.766;2022-12-18T03:46:27;17.40;48.60
51815;DHT22;37874;53.158;6.766;2022-12-18T03:48:59;17.40;48.60
51815;DHT22;37874;53.158;6.766;2022-12-18T03:54:02;17.40;48.60
51815;DHT22;37874;53.158;6.766;2022-12-18T03:56:33;17.40;48.70
51815;DHT22;37874;53.158;6.766;2022-12-18T03:59:01;17.40;48.60
51815;DHT22;37874;53.158;6.766;2022-12-18T04:01:36;17.40;48.60
51815;DHT22;37874;53.158;6.766;2022-12-18T04:04:03;17.40;48.60
51815;DHT22;37874;53.158;6.766;2022-12-18T04:06:30;17.40;48.60
51815;DHT22;37874;53.158;6.766;2022-12-18T04:08:57;17.40;48.50
51815;DHT22;37874;53.158;6.766;2022-12-18T04:11:23;17.50;48.60
51815;DHT22;37874;53.158;6.766;2022-12-18T04:13:49;17.50;48.60
51815;DHT22;37874;53.158;6.766;2022-12-18T04:16:15;17.50;48.70
51815;DHT22;37874;53.158;6.766;2022-12-18T04:18:40;17.50;48.70
51815;DHT22;37874;53.158;6.766;2022-12-18T04:21:06;17.50;48.70
51815;DHT22;37874;53.158;6.766;2022-12-18T04:23:32;17.40;48.60
51815;DHT22;37874;53.158;6.766;2022-12-18T04:25:57;17.50;48.60
51815;DHT22;37874;53.158;6.766;2022-12-18T04:28:23;17.50;48.60
51815;DHT22;37874;53.158;6.766;2022-12-18T04:30:49;17.40;48.50
51815;DHT22;37874;53.158;6.766;2022-12-18T04:33:18;17.40;48.50
51815;DHT22;37874;53.158;6.766;2022-12-18T04:35:44;17.50;48.60
51815;DHT22;37874;53.158;6.766;2022-12-18T04:38:10;17.40;48.40
51815;DHT22;37874;53.158;6.766;2022-12-18T04:40:36;17.40;48.40
51815;DHT22;37874;53.158;6.766;2022-12-18T04:43:03;17.40;48.40
51815;DHT22;37874;53.158;6.766;2022-12-18T04:45:30;17.40;48.40
51815;DHT22;37874;53.158;6.766;2022-12-18T04:48:00;17.50;48.40
51815;DHT22;37874;53.158;6.766;2022-12-18T04:50:27;17.50;48.40
51815;DHT22;37874;53.158;6.766;2022-12-18T04:52:53;17.40;48.40
51815;DHT22;37874;53.158;6.766;2022-12-18T04:55:19;17.50;48.40
51815;DHT22;37874;53.158;6.766;2022-12-18T04:57:44;17.40;48.30
51815;DHT22;37874;53.158;6.766;2022-12-18T05:00:11;17.80;48.50
51815;DHT22;37874;53.158;6.766;2022-12-18T05:02:36;17.50;48.30
51815;DHT22;37874;53.158;6.766;2022-12-18T05:05:02;17.50;48.30
51815;DHT22;37874;53.158;6.766;2022-12-18T05:07:28;17.50;48.30
51815;DHT22;37874;53.158;6.766;2022-12-18T05:09:54;17.60;48.30
51815;DHT22;37874;53.158;6.766;2022-12-18T05:12:19;17.40;48.10
51815;DHT22;37874;53.158;6.766;2022-12-18T05:14:49;17.50;48.20
51815;DHT22;37874;53.158;6.766;2022-12-18T05:17:14;17.40;48.10
51815;DHT22;37874;53.158;6.766;2022-12-18T05:19:40;17.40;48.20
51815;DHT22;37874;53.158;6.766;2022-12-18T05:22:08;17.50;48.10
51815;DHT22;37874;53.158;6.766;2022-12-18T05:24:33;17.40;48.00
51815;DHT22;37874;53.158;6.766;2022-12-18T05:26:59;17.50;48.10
51815;DHT22;37874;53.158;6.766;2022-12-18T05:29:25;17.40;48.00
51815;DHT22;37874;53.158;6.766;2022-12-18T05:31:50;17.40;48.00
51815;DHT22;37874;53.158;6.766;2022-12-18T05:34:16;17.40;48.00
51815;DHT22;37874;53.158;6.766;2022-12-18T05:36:42;17.40;48.00
51815;DHT22;37874;53.158;6.766;2022-12-18T05:39:08;17.50;48.00
51815;DHT22;37874;53.158;6.766;2022-12-18T05:41:33;17.50;48.00
51815;DHT22;37874;53.158;6.766;2022-12-18T05:43:59;17.40;48.00
51815;DHT22;37874;53.158;6.766;2022-12-18T05:46:25;17.40;48.00
51815;DHT22;37874;53.158;6.766;2022-12-18T05:48:51;17.40;48.00
51815;DHT22;37874;53.158;6.766;2022-12-18T05:51:19;17.40;47.90
51815;DHT22;37874;53.158;6.766;2022-12-18T05:53:46;17.40;47.90
51815;DHT22;37874;53.158;6.766;2022-12-18T05:56:14;17.40;47.80
51815;DHT22;37874;53.158;6.766;2022-12-18T05:58:40;17.40;47.80
51815;DHT22;37874;53.158;6.766;2022-12-18T06:03:33;17.40;47.80
51815;DHT22;37874;53.158;6.766;2022-12-18T06:05:59;17.40;47.90
51815;DHT22;37874;53.158;6.766;2022-12-18T06:08:24;17.40;47.90
51815;DHT22;37874;53.158;6.766;2022-12-18T06:10:51;17.40;47.90
51815;DHT22;37874;53.158;6.766;2022-12-18T06:13:21;17.40;48.00
51815;DHT22;37874;53.158;6.766;2022-12-18T06:15:46;17.30;47.90
51815;DHT22;37874;53.158;6.766;2022-12-18T06:18:12;17.40;48.50
51815;DHT22;37874;53.158;6.766;2022-12-18T06:20:38;17.30;47.80
51815;DHT22;37874;53.158;6.766;2022-12-18T06:23:05;17.30;47.90
51815;DHT22;37874;53.158;6.766;2022-12-18T06:25:31;17.30;47.90
51815;DHT22;37874;53.158;6.766;2022-12-18T06:27:57;17.30;47.80
51815;DHT22;37874;53.158;6.766;2022-12-18T06:30:23;17.30;47.90
51815;DHT22;37874;53.158;6.766;2022-12-18T06:32:49;17.30;47.90
51815;DHT22;37874;53.158;6.766;2022-12-18T06:35:15;17.30;47.90
51815;DHT22;37874;53.158;6.766;2022-12-18T06:37:40;17.30;47.90
51815;DHT22;37874;53.158;6.766;2022-12-18T06:40:06;17.30;47.90
51815;DHT22;37874;53.158;6.766;2022-12-18T06:42:32;17.30;47.90
51815;DHT22;37874;53.158;6.766;2022-12-18T06:44:58;17.20;47.80
51815;DHT22;37874;53.158;6.766;2022-12-18T06:47:24;17.20;47.90
51815;DHT22;37874;53.158;6.766;2022-12-18T06:49:49;17.20;47.90
51815;DHT22;37874;53.158;6.766;2022-12-18T06:52:15;17.20;47.90
51815;DHT22;37874;53.158;6.766;2022-12-18T06:54:40;17.20;47.90
51815;DHT22;37874;53.158;6.766;2022-12-18T06:57:06;17.20;47.80
51815;DHT22;37874;53.158;6.766;2022-12-18T06:59:31;17.20;47.80
51815;DHT22;37874;53.158;6.766;2022-12-18T07:01:57;17.20;47.80
51815;DHT22;37874;53.158;6.766;2022-12-18T07:04:30;17.20;47.80
51815;DHT22;37874;53.158;6.766;2022-12-18T07:06:56;17.20;47.80
51815;DHT22;37874;53.158;6.766;2022-12-18T07:09:22;17.20;47.70
51815;DHT22;37874;53.158;6.766;2022-12-18T07:11:48;17.20;47.80
51815;DHT22;37874;53.158;6.766;2022-12-18T07:14:14;17.10;47.70
51815;DHT22;37874;53.158;6.766;2022-12-18T07:16:39;17.10;47.70
51815;DHT22;37874;53.158;6.766;2022-12-18T07:19:06;17.10;47.70
51815;DHT22;37874;53.158;6.766;2022-12-18T07:21:31;17.10;47.70
51815;DHT22;37874;53.158;6.766;2022-12-18T07:23:57;17.10;47.70
51815;DHT22;37874;53.158;6.766;2022-12-18T07:26:23;17.10;47.70
51815;DHT22;37874;53.158;6.766;2022-12-18T07:28:49;17.10;47.70
51815;DHT22;37874;53.158;6.766;2022-12-18T07:31:20;17.10;47.70
51815;DHT22;37874;53.158;6.766;2022-12-18T07:33:46;17.10;47.70
51815;DHT22;37874;53.158;6.766;2022-12-18T07:36:12;17.20;47.80
51815;DHT22;37874;53.158;6.766;2022-12-18T07:38:38;17.10;47.70
51815;DHT22;37874;53.158;6.766;2022-12-18T07:41:09;17.10;47.70
51815;DHT22;37874;53.158;6.766;2022-12-18T07:43:35;17.10;47.70
51815;DHT22;37874;53.158;6.766;2022-12-18T07:46:01;17.10;47.70
51815;DHT22;37874;53.158;6.766;2022-12-18T07:48:28;17.10;47.80
51815;DHT22;37874;53.158;6.766;2022-12-18T07:50:55;17.10;47.80
51815;DHT22;37874;53.158;6.766;2022-12-18T07:53:23;17.10;47.80
51815;DHT22;37874;53.158;6.766;2022-12-18T07:55:48;17.10;47.90
51815;DHT22;37874;53.158;6.766;2022-12-18T07:58:14;17.20;47.90
51815;DHT22;37874;53.158;6.766;2022-12-18T08:00:39;17.20;47.80
51815;DHT22;37874;53.158;6.766;2022-12-18T08:03:05;17.20;47.80
51815;DHT22;37874;53.158;6.766;2022-12-18T08:05:30;17.20;47.70
51815;DHT22;37874;53.158;6.766;2022-12-18T08:07:56;17.20;47.70
51815;DHT22;37874;53.158;6.766;2022-12-18T08:10:23;17.20;47.70
51815;DHT22;37874;53.158;6.766;2022-12-18T08:12:50;17.20;47.70
51815;DHT22;37874;53.158;6.766;2022-12-18T08:15:16;17.30;47.70
51815;DHT22;37874;53.158;6.766;2022-12-18T08:17:42;17.20;47.60
51815;DHT22;37874;53.158;6.766;2022-12-18T08:20:08;17.20;47.60
51815;DHT22;37874;53.158;6.766;2022-12-18T08:22:38;17.30;47.70
51815;DHT22;37874;53.158;6.766;2022-12-18T08:25:04;17.30;47.70
51815;DHT22;37874;53.158;6.766;2022-12-18T08:27:30;17.70;47.90
51815;DHT22;37874;53.158;6.766;2022-12-18T08:29:56;17.40;47.70
51815;DHT22;37874;53.158;6.766;2022-12-18T08:32:22;17.30;47.70
51815;DHT22;37874;53.158;6.766;2022-12-18T08:34:48;17.40;47.70
51815;DHT22;37874;53.158;6.766;2022-12-18T08:37:14;17.40;47.60
51815;DHT22;37874;53.158;6.766;2022-12-18T08:39:39;17.40;47.80
51815;DHT22;37874;53.158;6.766;2022-12-18T08:42:05;17.40;47.70
51815;DHT22;37874;53.158;6.766;2022-12-18T08:44:49;17.40;47.80
51815;DHT22;37874;53.158;6.766;2022-12-18T08:47:14;17.70;47.90
51815;DHT22;37874;53.158;6.766;2022-12-18T08:49:40;17.50;47.80
51815;DHT22;37874;53.158;6.766;2022-12-18T08:52:06;17.40;47.70
51815;DHT22;37874;53.158;6.766;2022-12-18T08:54:31;17.50;47.80
51815;DHT22;37874;53.158;6.766;2022-12-18T08:56:57;17.50;47.70
51815;DHT22;37874;53.158;6.766;2022-12-18T08:59:22;17.80;47.80
51815;DHT22;37874;53.158;6.766;2022-12-18T09:01:49;17.60;47.70
51815;DHT22;37874;53.158;6.766;2022-12-18T09:04:15;17.60;47.60
51815;DHT22;37874;53.158;6.766;2022-12-18T09:06:41;17.60;47.60
51815;DHT22;37874;53.158;6.766;2022-12-18T09:09:06;17.60;47.50
51815;DHT22;37874;53.158;6.766;2022-12-18T09:11:32;17.60;47.50
51815;DHT22;37874;53.158;6.766;2022-12-18T09:14:00;17.60;47.50
51815;DHT22;37874;53.158;6.766;2022-12-18T09:16:27;17.70;47.60
51815;DHT22;37874;53.158;6.766;2022-12-18T09:18:54;17.60;47.50
51815;DHT22;37874;53.158;6.766;2022-12-18T09:21:25;17.70;47.70
51815;DHT22;37874;53.158;6.766;2022-12-18T09:23:53;17.70;47.60
51815;DHT22;37874;53.158;6.766;2022-12-18T09:26:19;17.70;47.60
51815;DHT22;37874;53.158;6.766;2022-12-18T09:28:45;17.70;47.50
51815;DHT22;37874;53.158;6.766;2022-12-18T09:31:15;17.70;47.40
51815;DHT22;37874;53.158;6.766;2022-12-18T09:33:41;17.70;47.40
51815;DHT22;37874;53.158;6.766;2022-12-18T09:36:09;17.70;47.40
51815;DHT22;37874;53.158;6.766;2022-12-18T09:38:35;17.70;47.40
51815;DHT22;37874;53.158;6.766;2022-12-18T09:41:44;17.80;47.50
51815;DHT22;37874;53.158;6.766;2022-12-18T09:44:32;17.80;47.50
51815;DHT22;37874;53.158;6.766;2022-12-18T09:47:13;17.80;47.50
51815;DHT22;37874;53.158;6.766;2022-12-18T09:49:43;17.80;47.40
51815;DHT22;37874;53.158;6.766;2022-12-18T09:54:47;17.90;47.50
51815;DHT22;37874;53.158;6.766;2022-12-18T09:57:18;17.80;47.30
51815;DHT22;37874;53.158;6.766;2022-12-18T10:00:22;17.90;47.30
51815;DHT22;37874;53.158;6.766;2022-12-18T10:02:40;17.90;47.30
51815;DHT22;37874;53.158;6.766;2022-12-18T10:05:14;17.80;47.40
51815;DHT22;37874;53.158;6.766;2022-12-18T10:10:41;17.90;47.10
51815;DHT22;37874;53.158;6.766;2022-12-18T10:13:33;17.90;47.00
51815;DHT22;37874;53.158;6.766;2022-12-18T10:27:18;17.90;47.10
51815;DHT22;37874;53.158;6.766;2022-12-18T10:29:44;18.00;47.10
51815;DHT22;37874;53.158;6.766;2022-12-18T10:32:16;18.00;47.10
51815;DHT22;37874;53.158;6.766;2022-12-18T10:34:46;18.00;47.10
51815;DHT22;37874;53.158;6.766;2022-12-18T10:37:18;18.00;47.00
51815;DHT22;37874;53.158;6.766;2022-12-18T10:39:44;18.00;47.00
51815;DHT22;37874;53.158;6.766;2022-12-18T10:42:19;18.10;47.10
51815;DHT22;37874;53.158;6.766;2022-12-18T10:44:45;18.10;47.20
51815;DHT22;37874;53.158;6.766;2022-12-18T10:47:15;18.20;47.30
51815;DHT22;37874;53.158;6.766;2022-12-18T10:50:10;18.10;47.20
51815;DHT22;37874;53.158;6.766;2022-12-18T10:52:43;18.10;47.20
51815;DHT22;37874;53.158;6.766;2022-12-18T10:55:16;18.10;47.30
51815;DHT22;37874;53.158;6.766;2022-12-18T10:57:43;18.10;47.20
51815;DHT22;37874;53.158;6.766;2022-12-18T11:00:24;18.10;47.30
51815;DHT22;37874;53.158;6.766;2022-12-18T11:02:50;18.10;47.30
51815;DHT22;37874;53.158;6.766;2022-12-18T11:05:30;18.20;47.90
51815;DHT22;37874;53.158;6.766;2022-12-18T11:07:58;18.10;47.20
51815;DHT22;37874;53.158;6.766;2022-12-18T11:10:33;18.20;47.40
51815;DHT22;37874;53.158;6.766;2022-12-18T11:13:20;18.10;47.20
51815;DHT22;37874;53.158;6.766;2022-12-18T11:15:47;18.10;47.30
51815;DHT22;37874;53.158;6.766;2022-12-18T11:18:34;18.10;47.20
51815;DHT22;37874;53.158;6.766;2022-12-18T11:23:33;18.10;47.30
51815;DHT22;37874;53.158;6.766;2022-12-18T11:26:01;18.10;47.40
51815;DHT22;37874;53.158;6.766;2022-12-18T11:28:37;18.20;47.50
51815;DHT22;37874;53.158;6.766;2022-12-18T11:33:35;18.20;47.60
51815;DHT22;37874;53.158;6.766;2022-12-18T11:36:04;18.20;47.50
51815;DHT22;37874;53.158;6.766;2022-12-18T11:38:35;18.20;47.60
51815;DHT22;37874;53.158;6.766;2022-12-18T11:41:19;18.20;47.50
51815;DHT22;37874;53.158;6.766;2022-12-18T11:43:56;18.20;47.60
51815;DHT22;37874;53.158;6.766;2022-12-18T11:46:37;18.20;47.50
51815;DHT22;37874;53.158;6.766;2022-12-18T11:49:09;18.20;47.70
51815;DHT22;37874;53.158;6.766;2022-12-18T11:52:07;18.10;47.50
51815;DHT22;37874;53.158;6.766;2022-12-18T13:55:46;18.10;47.90
51815;DHT22;37874;53.158;6.766;2022-12-18T13:58:12;18.10;48.00
51815;DHT22;37874;53.158;6.766;2022-12-18T14:00:41;18.10;48.00
51815;DHT22;37874;53.158;6.766;2022-12-18T14:03:19;18.10;48.00
51815;DHT22;37874;53.158;6.766;2022-12-18T14:05:45;18.10;48.00
51815;DHT22;37874;53.158;6.766;2022-12-18T14:08:18;18.10;48.00
51815;DHT22;37874;53.158;6.766;2022-12-18T14:10:45;18.10;48.00
51815;DHT22;37874;53.158;6.766;2022-12-18T14:13:24;18.10;48.50
51815;DHT22;37874;53.158;6.766;2022-12-18T14:15:53;18.10;48.10
51815;DHT22;37874;53.158;6.766;2022-12-18T14:18:23;18.10;48.10
51815;DHT22;37874;53.158;6.766;2022-12-18T14:20:52;18.10;48.10
51815;DHT22;37874;53.158;6.766;2022-12-18T14:23:35;18.20;48.20
51815;DHT22;37874;53.158;6.766;2022-12-18T14:26:22;18.10;48.10
51815;DHT22;37874;53.158;6.766;2022-12-18T14:28:48;18.20;48.20
51815;DHT22;37874;53.158;6.766;2022-12-18T14:31:21;18.10;48.10
51815;DHT22;37874;53.158;6.766;2022-12-18T14:33:47;18.10;48.30
51815;DHT22;37874;53.158;6.766;2022-12-18T14:36:19;18.30;48.40
51815;DHT22;37874;53.158;6.766;2022-12-18T14:38:53;18.10;48.30
51815;DHT22;37874;53.158;6.766;2022-12-18T14:41:20;18.20;48.90
51815;DHT22;37874;53.158;6.766;2022-12-18T14:43:51;18.10;48.50
51815;DHT22;37874;53.158;6.766;2022-12-18T14:46:37;18.10;48.50
51815;DHT22;37874;53.158;6.766;2022-12-18T14:49:33;18.10;48.40
51815;DHT22;37874;53.158;6.766;2022-12-18T14:52:01;18.10;48.40
51815;DHT22;37874;53.158;6.766;2022-12-18T14:54:28;18.10;48.40
51815;DHT22;37874;53.158;6.766;2022-12-18T14:59:24;18.10;48.50
51815;DHT22;37874;53.158;6.766;2022-12-18T15:02:16;18.10;48.50
51815;DHT22;37874;53.158;6.766;2022-12-18T15:04:44;18.10;48.40
51815;DHT22;37874;53.158;6.766;2022-12-18T15:07:18;18.10;48.50
51815;DHT22;37874;53.158;6.766;2022-12-18T15:10:13;18.10;48.60
51815;DHT22;37874;53.158;6.766;2022-12-18T15:12:45;18.10;48.50
51815;DHT22;37874;53.158;6.766;2022-12-18T15:18:00;18.10;48.50
51815;DHT22;37874;53.158;6.766;2022-12-18T15:20:27;18.10;48.50
51815;DHT22;37874;53.158;6.766;2022-12-18T15:22:52;18.10;48.70
51815;DHT22;37874;53.158;6.766;2022-12-18T15:25:27;18.10;48.60
51815;DHT22;37874;53.158;6.766;2022-12-18T15:27:54;18.10;48.70
51815;DHT22;37874;53.158;6.766;2022-12-18T15:30:24;18.10;48.80
51815;DHT22;37874;53.158;6.766;2022-12-18T15:32:51;18.10;48.80
51815;DHT22;37874;53.158;6.766;2022-12-18T15:35:22;18.10;48.80
51815;DHT22;37874;53.158;6.766;2022-12-18T15:37:50;18.10;48.80
51815;DHT22;37874;53.158;6.766;2022-12-18T15:40:21;18.10;48.90
51815;DHT22;37874;53.158;6.766;2022-12-18T15:42:48;18.10;48.80
51815;DHT22;37874;53.158;6.766;2022-12-18T15:45:34;18.10;48.80
51815;DHT22;37874;53.158;6.766;2022-12-18T15:48:00;18.10;48.80
51815;DHT22;37874;53.158;6.766;2022-12-18T15:50:26;18.10;48.90
51815;DHT22;37874;53.158;6.766;2022-12-18T15:52:53;18.10;48.90
51815;DHT22;37874;53.158;6.766;2022-12-18T15:55:22;18.20;48.90
51815;DHT22;37874;53.158;6.766;2022-12-18T15:58:08;18.20;48.90
51815;DHT22;37874;53.158;6.766;2022-12-18T16:00:37;18.20;48.80
51815;DHT22;37874;53.158;6.766;2022-12-18T16:03:04;18.20;48.80
51815;DHT22;37874;53.158;6.766;2022-12-18T16:05:30;18.20;48.80
51815;DHT22;37874;53.158;6.766;2022-12-18T16:07:56;18.10;48.70
51815;DHT22;37874;53.158;6.766;2022-12-18T16:10:22;18.20;49.30
51815;DHT22;37874;53.158;6.766;2022-12-18T16:12:49;18.10;48.70
51815;DHT22;37874;53.158;6.766;2022-12-18T16:15:15;18.20;48.70
51815;DHT22;37874;53.158;6.766;2022-12-18T16:17:44;18.20;49.00
51815;DHT22;37874;53.158;6.766;2022-12-18T16:20:19;18.20;48.80
51815;DHT22;37874;53.158;6.766;2022-12-18T16:22:46;18.20;48.80
51815;DHT22;37874;53.158;6.766;2022-12-18T16:25:28;18.20;48.80
51815;DHT22;37874;53.158;6.766;2022-12-18T16:27:54;18.20;48.80
51815;DHT22;37874;53.158;6.766;2022-12-18T16:30:27;18.10;48.70
51815;DHT22;37874;53.158;6.766;2022-12-18T16:32:54;18.20;48.80
51815;DHT22;37874;53.158;6.766;2022-12-18T16:35:20;18.10;48.60
51815;DHT22;37874;53.158;6.766;2022-12-18T16:37:46;18.10;48.60
51815;DHT22;37874;53.158;6.766;2022-12-18T16:40:14;18.10;48.60
51815;DHT22;37874;53.158;6.766;2022-12-18T16:42:42;18.20;48.60
51815;DHT22;37874;53.158;6.766;2022-12-18T16:45:09;18.10;48.60
51815;DHT22;37874;53.158;6.766;2022-12-18T16:47:36;18.20;48.70
51815;DHT22;37874;53.158;6.766;2022-12-18T16:50:02;18.10;48.60
51815;DHT22;37874;53.158;6.766;2022-12-18T16:52:28;18.20;48.50
51815;DHT22;37874;53.158;6.766;2022-12-18T16:54:54;18.20;48.60
51815;DHT22;37874;53.158;6.766;2022-12-18T16:57:20;18.20;48.50
51815;DHT22;37874;53.158;6.766;2022-12-18T16:59:46;18.10;48.40
51815;DHT22;37874;53.158;6.766;2022-12-18T17:02:19;18.20;48.50
51815;DHT22;37874;53.158;6.766;2022-12-18T17:04:45;18.20;48.50
51815;DHT22;37874;53.158;6.766;2022-12-18T17:07:12;18.20;48.50
51815;DHT22;37874;53.158;6.766;2022-12-18T17:09:38;18.20;48.50
51815;DHT22;37874;53.158;6.766;2022-12-18T17:12:04;18.20;48.40
51815;DHT22;37874;53.158;6.766;2022-12-18T17:14:31;18.20;48.40
51815;DHT22;37874;53.158;6.766;2022-12-18T17:16:57;18.20;48.40
51815;DHT22;37874;53.158;6.766;2022-12-18T17:19:24;18.20;48.40
51815;DHT22;37874;53.158;6.766;2022-12-18T17:21:50;18.20;48.50
51815;DHT22;37874;53.158;6.766;2022-12-18T17:24:17;18.20;48.50
51815;DHT22;37874;53.158;6.766;2022-12-18T17:26:43;18.20;48.50
51815;DHT22;37874;53.158;6.766;2022-12-18T17:29:14;18.20;48.60
51815;DHT22;37874;53.158;6.766;2022-12-18T17:31:40;18.20;48.50
51815;DHT22;37874;53.158;6.766;2022-12-18T17:34:05;18.20;48.60
51815;DHT22;37874;53.158;6.766;2022-12-18T17:36:31;18.20;48.40
51815;DHT22;37874;53.158;6.766;2022-12-18T17:38:58;18.20;48.50
51815;DHT22;37874;53.158;6.766;2022-12-18T17:41:25;18.20;48.50
51815;DHT22;37874;53.158;6.766;2022-12-18T17:43:59;18.20;48.50
51815;DHT22;37874;53.158;6.766;2022-12-18T17:46:26;18.20;48.50
51815;DHT22;37874;53.158;6.766;2022-12-18T17:48:54;18.40;48.50
51815;DHT22;37874;53.158;6.766;2022-12-18T17:51:20;18.20;48.50
51815;DHT22;37874;53.158;6.766;2022-12-18T17:53:46;18.20;48.60
51815;DHT22;37874;53.158;6.766;2022-12-18T17:56:13;18.20;48.50
51815;DHT22;37874;53.158;6.766;2022-12-18T17:58:39;18.20;48.60
51815;DHT22;37874;53.158;6.766;2022-12-18T18:01:05;18.20;48.60
51815;DHT22;37874;53.158;6.766;2022-12-18T18:03:31;18.20;48.60
51815;DHT22;37874;53.158;6.766;2022-12-18T18:05:58;18.30;48.60
51815;DHT22;37874;53.158;6.766;2022-12-18T18:08:25;18.20;48.60
51815;DHT22;37874;53.158;6.766;2022-12-18T18:10:51;18.20;48.60
51815;DHT22;37874;53.158;6.766;2022-12-18T18:13:20;18.20;48.60
51815;DHT22;37874;53.158;6.766;2022-12-18T18:16:05;18.20;48.60
51815;DHT22;37874;53.158;6.766;2022-12-18T18:18:30;18.20;48.50
51815;DHT22;37874;53.158;6.766;2022-12-18T18:20:56;18.20;48.60
51815;DHT22;37874;53.158;6.766;2022-12-18T18:23:22;18.20;48.50
51815;DHT22;37874;53.158;6.766;2022-12-18T18:25:49;18.10;48.60
51815;DHT22;37874;53.158;6.766;2022-12-18T18:28:14;18.10;48.60
51815;DHT22;37874;53.158;6.766;2022-12-18T18:30:40;18.10;48.70
51815;DHT22;37874;53.158;6.766;2022-12-18T18:33:05;18.10;48.60
51815;DHT22;37874;53.158;6.766;2022-12-18T18:35:31;18.10;48.50
51815;DHT22;37874;53.158;6.766;2022-12-18T18:37:56;18.10;48.50
51815;DHT22;37874;53.158;6.766;2022-12-18T18:40:22;18.10;48.50
51815;DHT22;37874;53.158;6.766;2022-12-18T18:42:48;18.10;48.50